Uploader - warcrawt

Uploader to miejsce na przechowywanie plików Twojej twórczości, którymi chcesz podzielić się na GMCLANie.

Zajęte: 32.24 MB (32%)
Najnowsze pliki graficzne w tym folderze (max. 12):
Plik Pobrań Rozmiar Data uploadu
6.png Podgląd 303 349.00 B 01.04.2014 12:12:12
75bbcdb7e1.png Podgląd 309 881.00 B 01.04.2014 12:12:12
Emote_Maker_0_2.rar 272 942.62 KB 01.04.2014 12:12:12
LibertyCity_1_.png Podgląd 275 107.03 KB 01.04.2014 12:12:12
View.png Podgląd 335 17.25 KB 01.04.2014 12:12:12
8.png Podgląd 342 464.00 B 01.04.2014 12:12:11
befae3d361.gm6 269 27.47 KB 01.04.2014 12:12:11
screen2_2_.jpg Podgląd 324 892.57 KB 01.04.2014 12:12:11
70_Chevelle.png Podgląd 270 1.91 KB 01.04.2014 12:12:11
35.png Podgląd 347 466.00 B 01.04.2014 12:12:11
m.png Podgląd 302 20.58 KB 01.04.2014 12:12:11
yugo.gif Podgląd 312 3.22 KB 01.04.2014 12:12:11
Reklama_anim.gif Podgląd 323 511.35 KB 01.04.2014 12:12:10
Pi_ka_nozna.gm6 244 11.49 KB 01.04.2014 12:12:10
23.png Podgląd 285 324.00 B 01.04.2014 12:12:10
przyk_ad1.gm6 274 6.49 KB 01.04.2014 12:12:10
Kopia_ludzik.jpg Podgląd 335 4.58 KB 01.04.2014 12:12:10
screen1.png Podgląd 328 972.05 KB 01.04.2014 12:12:10
dodawanie_napisu.gm6 280 4.57 KB 01.04.2014 12:12:10
o_uwek.gm6 283 5.19 KB 01.04.2014 12:12:10
hspeed.png Podgląd 280 357.00 B 01.04.2014 12:12:10
minimap.gm6 283 18.73 KB 01.04.2014 12:12:10
31.png Podgląd 305 644.00 B 01.04.2014 12:12:09
Platformowa.gm6 270 28.45 KB 01.04.2014 12:12:09
10.png Podgląd 285 409.00 B 01.04.2014 12:12:08
1.png Podgląd 329 328.00 B 01.04.2014 12:12:08
Drzewo03_2_.png Podgląd 269 299.67 KB 01.04.2014 12:12:08
38.png Podgląd 291 345.00 B 01.04.2014 12:12:08
32.png Podgląd 322 343.00 B 01.04.2014 12:12:08
Reklama_.png Podgląd 314 40.64 KB 01.04.2014 12:12:08
Warcrawt_Games.png Podgląd 318 26.03 KB 01.04.2014 12:12:08
aa6a86e7e8.png Podgląd 328 8.68 KB 01.04.2014 12:12:08
error.png Podgląd 298 10.07 KB 01.04.2014 12:12:08
move_to_point.png Podgląd 334 328.00 B 01.04.2014 12:12:08
33.png Podgląd 295 768.00 B 01.04.2014 12:12:08
20.png Podgląd 295 637.00 B 01.04.2014 12:12:07
Screen2.png Podgląd 309 2.25 MB 01.04.2014 12:12:07
Lost_in_War.rar 280 1.10 MB 01.04.2014 12:12:06
ITIRES.png Podgląd 315 1.08 K 01.04.2014 12:12:06
gmaker61.rar 281 3.56 MB 01.04.2014 12:12:05
Tiuning_of_car.rar 246 5.89 MB 01.04.2014 12:12:02
klikanie_co_godzine.gm6 266 6.05 KB 01.04.2014 12:12:02
03a771d259.gm6 287 18.73 KB 01.04.2014 12:11:59
24.png Podgląd 288 356.00 B 01.04.2014 12:11:58
linia.gm6 246 6.09 KB 01.04.2014 12:11:58
30.png Podgląd 316 864.00 B 01.04.2014 12:11:58
screen.png Podgląd 345 240.90 KB 01.04.2014 12:11:58
Edytor_Mapy.gm6 266 6.84 KB 01.04.2014 12:11:58
12.png Podgląd 292 344.00 B 01.04.2014 12:11:58
yugo_hideous.gif Podgląd 259 1.50 KB 01.04.2014 12:11:58
4.png Podgląd 306 384.00 B 01.04.2014 12:11:58
Lon.gm6 302 10.20 KB 01.04.2014 12:11:58
exemple.gm6 292 3.47 KB 01.04.2014 12:11:58
vspeed.png Podgląd 290 357.00 B 01.04.2014 12:11:58
Drzewo02.png Podgląd 304 46.29 KB 01.04.2014 12:11:58
Mega_Pack.rar 274 20.36 KB 01.04.2014 12:11:58
m2.png Podgląd 293 20.58 KB 01.04.2014 12:11:57
21.png Podgląd 309 416.00 B 01.04.2014 12:11:57
jump_to_start.png Podgląd 287 548.00 B 01.04.2014 12:11:57
9.png Podgląd 322 321.00 B 01.04.2014 12:11:57
move2.png Podgląd 330 366.00 B 01.04.2014 12:11:57
naruto.gm6 274 59.48 KB 01.04.2014 12:11:57
wodospad.gm6 258 6.17 KB 01.04.2014 12:11:57
Historia_bez_granic__menu_.rar 234 1.45 MB 01.04.2014 12:11:57
37.png Podgląd 346 342.00 B 01.04.2014 12:11:56
5.png Podgląd 290 288.00 B 01.04.2014 12:11:56
29.png Podgląd 290 611.00 B 01.04.2014 12:11:56
Drzewo03.png Podgląd 280 298.64 KB 01.04.2014 12:11:56
22.png Podgląd 271 476.00 B 01.04.2014 12:11:55
19.png Podgląd 296 736.00 B 01.04.2014 12:11:55
minimap3.gm6 252 14.01 KB 01.04.2014 12:11:55
13.png Podgląd 282 725.00 B 01.04.2014 12:11:55
1354ecfeba.png Podgląd 286 374.00 B 01.04.2014 12:11:55
15.png Podgląd 284 754.00 B 01.04.2014 12:11:55
17.png Podgląd 335 264.00 B 01.04.2014 12:11:55
View.gm6 272 10.44 KB 01.04.2014 12:11:55
5c80576bf7.png Podgląd 293 10.75 KB 01.04.2014 12:11:55
28.png Podgląd 273 296.00 B 01.04.2014 12:11:55
27.png Podgląd 281 838.00 B 01.04.2014 12:11:55
Mega_Tank_Wars.png Podgląd 247 56.42 KB 01.04.2014 12:11:55
72be7839ae.gm6 256 23.57 KB 01.04.2014 12:11:55
7.png Podgląd 282 299.00 B 01.04.2014 12:11:55
Screen1.jpg Podgląd 353 896.31 KB 01.04.2014 12:11:54
zawrucenie.png Podgląd 298 371.00 B 01.04.2014 12:11:54
toolbar.rar 298 14.66 KB 01.04.2014 12:11:54
przyk_ad.gm6 279 11.34 KB 01.04.2014 12:11:54
move.png Podgląd 322 383.00 B 01.04.2014 12:11:53
Kurs_C__.pdf 284 4.80 MB 01.04.2014 12:11:53
ko_.png Podgląd 326 881.00 B 01.04.2014 12:11:53
bez_tytu_u.png Podgląd 265 9.63 KB 01.04.2014 12:11:53
34.png Podgląd 319 482.00 B 01.04.2014 12:11:53
36.png Podgląd 296 357.00 B 01.04.2014 12:11:53
2.png Podgląd 296 464.00 B 01.04.2014 12:11:53
Drzewo01.png Podgląd 300 31.90 KB 01.04.2014 12:11:53
18.png Podgląd 275 551.00 B 01.04.2014 12:11:53
gravity.png Podgląd 326 347.00 B 01.04.2014 12:11:53
Mega_Tank_Wars.rar 273 2.98 MB 01.04.2014 12:11:48
Path.gm6 264 6.56 KB 01.04.2014 12:11:48
Tuning_The_Cars_2.rar 279 1.05 MB 01.04.2014 12:11:45
snapshot.png Podgląd 308 1.17 MB 01.04.2014 12:11:45
26.png Podgląd 269 753.00 B 01.04.2014 12:11:44
Rand.rar 291 1.84 KB 01.04.2014 12:11:44
14.png Podgląd 327 722.00 B 01.04.2014 12:11:44
25.png Podgląd 325 353.00 B 01.04.2014 12:11:43
auto_2d.gm6 277 366.56 KB 01.04.2014 12:11:43
16.png Podgląd 267 995.00 B 01.04.2014 12:11:43
jump_to_random.png Podgląd 329 513.00 B 01.04.2014 12:11:43
Kalkulator.rar 271 0.97 MB 01.04.2014 12:11:43
3.png Podgląd 282 218.00 B 01.04.2014 12:11:43
zawrucenie2.png Podgląd 265 362.00 B 01.04.2014 12:11:43
pi_ka.gm6 277 10.70 KB 01.04.2014 12:11:42
11.png Podgląd 273 323.00 B 01.04.2014 12:11:42
Paint.rar 266 926.95 KB 01.04.2014 12:11:42
32 MB / 100MB

Najnowsze wersje GameMakera:

Stabilna
2024.14.4.222 • 2024.14.4.268
wydana 32 dni temu
LTS
2022.0.3.85 • 2022.0.3.99
wydana 519 dni temu
Beta
2024.1400.5.1055 •
2024.1400.5.1027
 0.19.0

wydana 7 dni temu
= IDE, = Runtime, = GMRT
Użytkownicy online
1 użytkownik aktywny:
gości: 1,
(~ostatnie 15 minut)
Discord
50 użytkowników online na discordzie:
Miłosz, 🧁Cupcake🧁, Alice, LeD, Nitro Slav, Carl-bot, Fox, GibkiKaktus, 21Lancz, HappyOrange, Wielki Druid, wSzymon1, b..., Kuzyn, Soplyash, 𝕳𝖚𝖌𝖔 𝕲𝖔𝖓𝖝𝖆𝖑𝖊𝖝, 𝕯𝖎𝖆𝖓𝖆, Radek Ignatów, PhysX ᴺⱽᴵᴰᴵᴬ, r..., Threef, RogerDodg3r, Uzjel, Destiny, Pako, Jarkozpl, yazaa, Dyno, szmalu, sutikku, Marco, OdrzuconyKrakers, Skovv, Danieo, bagno, Arrekin, Tidżi, Mtax, g..., Voytec, GreenClover, s..., l..., Cebul, moeglich, Kandif, h..., Shockah, Nero, xVANiLL
Shoutbox
gnysek (11:13, 05.05.26)
czekamy na GMRT
Wojo (14:53, 04.05.26)
Co tak cicho?
gnysek (11:01, 30.04.26)
Grill panie, grill.
Wojo (14:18, 29.04.26)
Jak planujecie spędzić najbliższą majówkę?
Wojo (13:15, 13.03.26)
Ja zainstalowałem sobie Linux mint na swoim laptopie :)
Wojo (10:21, 12.02.26)
Tak, po zmianach gmclan przeżywa drugą młodość. Najnowsze trendy wskazują, że ten rok będzie rokiem Linuxa, rokiem odejścia od Facebooka i rokiem odejścia od discorda na rzecz forów internetowych B)
K
Kamilek (21:57, 08.12.25)
Ale klimat tu znowu wrócić! :-D
Wojo (13:03, 07.12.25)
Żeby nie było to jednak discord jest żywy :)
Wojo (12:50, 07.12.25)
Ehh znak czasu. Prawie dwa miesiące ciszy w shoutboxie, na forum też raczej cisza i jest głównie swego rodzaju archiwum ostatnich dwóch dekad
gnysek (16:01, 16.10.25)
To już google decyduje. Mam wrażenie, ze po datach obcina stare treści.
Starsze wpisy znajdziesz w Archiwum.
Ankieta
Ile zarobiłeś do tej pory na grach stworzonych w GM?